createdAt,value
2019-01-17T00:01:31.480Z,2.60
2019-01-17T00:04:23.504Z,2.60
2019-01-17T00:07:12.555Z,2.60
2019-01-17T00:09:53.313Z,2.60
2019-01-17T00:12:31.018Z,2.60
2019-01-17T00:15:19.248Z,2.60
2019-01-17T00:18:07.078Z,2.60
2019-01-17T00:21:11.275Z,2.60
2019-01-17T00:24:02.784Z,2.60
2019-01-17T00:26:57.367Z,2.60
2019-01-17T00:29:36.700Z,2.60
2019-01-17T00:32:29.229Z,2.60
2019-01-17T00:35:24.430Z,2.50
2019-01-17T00:38:03.975Z,2.50
2019-01-17T00:40:49.133Z,2.50
2019-01-17T00:43:37.262Z,2.50
2019-01-17T00:46:25.497Z,2.50
2019-01-17T00:49:06.258Z,2.40
2019-01-17T00:51:58.494Z,2.40
2019-01-17T00:54:59.721Z,2.40
2019-01-17T00:57:51.746Z,2.40
2019-01-17T01:00:49.904Z,2.30
2019-01-17T01:03:37.731Z,2.30
2019-01-17T01:06:25.869Z,2.30
2019-01-17T01:09:17.779Z,2.30
2019-01-17T01:12:06.707Z,2.30
2019-01-17T01:14:55.988Z,2.30
2019-01-17T01:17:48.111Z,2.30
2019-01-17T01:20:55.582Z,2.30
2019-01-17T01:23:43.826Z,2.40
2019-01-17T01:26:27.664Z,2.40
2019-01-17T01:29:15.589Z,2.40
2019-01-17T01:31:53.081Z,2.40
2019-01-17T01:34:57.484Z,2.40
2019-01-17T01:37:45.516Z,2.50
2019-01-17T01:40:27.011Z,2.50
2019-01-17T01:43:08.684Z,2.50
2019-01-17T01:46:00.401Z,2.50
2019-01-17T01:48:52.620Z,2.50
2019-01-17T01:51:47.925Z,2.50
2019-01-17T01:54:22.026Z,2.60
2019-01-17T01:56:50.796Z,2.60
2019-01-17T01:59:21.016Z,2.60
2019-01-17T02:01:51.702Z,2.60
2019-01-17T02:04:21.951Z,2.70
2019-01-17T02:06:52.491Z,2.60
2019-01-17T02:09:22.750Z,2.60
2019-01-17T02:11:53.216Z,2.60
2019-01-17T02:14:23.522Z,2.60
2019-01-17T02:16:53.990Z,2.60
2019-01-17T02:19:24.374Z,2.60
2019-01-17T02:21:54.602Z,2.60
2019-01-17T02:24:28.492Z,2.60
2019-01-17T02:26:57.108Z,2.60
2019-01-17T02:29:27.278Z,2.60
2019-01-17T02:31:58.024Z,2.60
2019-01-17T02:34:28.550Z,2.70
2019-01-17T02:36:59.100Z,2.60
2019-01-17T02:39:29.606Z,2.60
2019-01-17T02:41:59.789Z,2.70
2019-01-17T02:44:30.376Z,2.70
2019-01-17T02:47:00.622Z,2.70
2019-01-17T02:49:30.802Z,2.70
2019-01-17T02:52:01.396Z,2.70
2019-01-17T02:54:35.687Z,2.70
2019-01-17T02:57:04.070Z,2.70
2019-01-17T02:59:34.678Z,2.70
2019-01-17T03:02:04.936Z,2.70
2019-01-17T03:04:35.534Z,2.80
2019-01-17T03:07:05.775Z,2.80
2019-01-17T03:09:36.380Z,2.70
2019-01-17T03:12:07.089Z,2.80
2019-01-17T03:14:37.664Z,2.80
2019-01-17T03:17:08.118Z,2.80
2019-01-17T03:19:38.376Z,2.80
2019-01-17T03:22:08.880Z,2.80
2019-01-17T03:24:43.116Z,2.80
2019-01-17T03:27:11.331Z,2.80
2019-01-17T03:29:41.891Z,2.70
2019-01-17T03:32:12.025Z,2.80
2019-01-17T03:34:42.592Z,2.80
2019-01-17T03:37:12.816Z,2.80
2019-01-17T03:39:43.324Z,2.80
2019-01-17T03:42:13.832Z,2.80
2019-01-17T03:44:44.102Z,2.80
2019-01-17T03:47:14.285Z,2.80
2019-01-17T03:49:44.946Z,2.80
2019-01-17T03:52:15.622Z,2.80
2019-01-17T03:54:50.522Z,2.80
2019-01-17T03:57:18.397Z,2.80
2019-01-17T03:59:48.314Z,2.80
2019-01-17T04:02:18.929Z,2.80
2019-01-17T04:04:49.529Z,2.80
2019-01-17T04:07:19.866Z,2.80
2019-01-17T04:09:50.586Z,2.80
2019-01-17T04:12:21.240Z,2.80
2019-01-17T04:14:51.783Z,2.80
2019-01-17T04:17:21.736Z,2.80
2019-01-17T04:19:52.337Z,2.80
2019-01-17T04:22:22.549Z,2.80
2019-01-17T04:24:57.369Z,2.80
2019-01-17T04:27:24.780Z,2.80
2019-01-17T04:29:54.975Z,2.80
2019-01-17T04:32:25.494Z,2.70
2019-01-17T04:34:56.019Z,2.70
2019-01-17T04:37:26.482Z,2.70
2019-01-17T04:39:56.986Z,2.70
2019-01-17T04:42:27.546Z,2.70
2019-01-17T04:44:57.777Z,2.70
2019-01-17T04:47:28.396Z,2.70
2019-01-17T04:49:59.055Z,2.60
2019-01-17T04:52:29.633Z,2.60
2019-01-17T04:55:05.013Z,2.60
2019-01-17T04:57:32.554Z,2.60
2019-01-17T05:00:03.122Z,2.60
2019-01-17T05:02:33.586Z,2.70
2019-01-17T05:05:03.775Z,2.60
2019-01-17T05:07:34.381Z,2.70
2019-01-17T05:10:05.318Z,2.70
2019-01-17T05:12:35.848Z,2.70
2019-01-17T05:15:06.826Z,2.70
2019-01-17T05:17:37.344Z,2.70
2019-01-17T05:20:09.320Z,2.80
2019-01-17T05:22:39.250Z,2.90
2019-01-17T05:25:12.734Z,3.00
2019-01-17T05:27:41.931Z,2.90
2019-01-17T05:30:17.369Z,2.90
2019-01-17T05:32:48.206Z,3.00
2019-01-17T05:35:18.537Z,2.90
2019-01-17T05:37:48.760Z,2.90
2019-01-17T05:40:20.367Z,2.90
2019-01-17T05:42:50.856Z,2.90
2019-01-17T05:45:21.328Z,2.90
2019-01-17T05:47:51.820Z,2.90
2019-01-17T05:50:22.344Z,2.90
2019-01-17T05:52:52.540Z,3.00
2019-01-17T05:55:22.409Z,3.00
2019-01-17T05:57:52.321Z,3.00
2019-01-17T06:00:23.114Z,3.00
2019-01-17T06:02:53.640Z,3.00
2019-01-17T06:05:23.606Z,3.00
2019-01-17T06:07:54.160Z,3.00
2019-01-17T06:10:24.378Z,3.10
2019-01-17T06:12:55.291Z,3.10
2019-01-17T06:15:26.363Z,3.10
2019-01-17T06:17:56.932Z,3.10
2019-01-17T06:20:26.914Z,3.10
2019-01-17T06:22:57.133Z,3.10
2019-01-17T06:25:28.174Z,3.20
2019-01-17T06:27:58.851Z,3.20
2019-01-17T06:30:29.555Z,3.10
2019-01-17T06:32:59.362Z,3.20
2019-01-17T06:35:29.839Z,3.20
2019-01-17T06:38:00.110Z,3.20
2019-01-17T06:40:32.884Z,3.20
2019-01-17T06:43:03.532Z,3.20
2019-01-17T06:45:34.016Z,3.20
2019-01-17T06:48:04.837Z,3.20
2019-01-17T06:50:35.349Z,3.30
2019-01-17T06:53:04.940Z,3.30
2019-01-17T06:55:35.405Z,3.20
2019-01-17T06:58:05.804Z,3.20
2019-01-17T07:00:36.026Z,3.20
2019-01-17T07:03:06.590Z,3.20
2019-01-17T07:05:37.181Z,3.30
2019-01-17T07:08:07.678Z,3.30
2019-01-17T07:10:38.092Z,3.30
2019-01-17T07:13:08.342Z,3.30
2019-01-17T07:15:39.024Z,3.30
2019-01-17T07:18:09.226Z,3.40
2019-01-17T07:20:39.481Z,3.40
2019-01-17T07:23:09.278Z,3.40
2019-01-17T07:25:41.143Z,3.50
2019-01-17T07:28:11.890Z,3.50
2019-01-17T07:30:42.404Z,3.50
2019-01-17T07:33:12.776Z,3.50
2019-01-17T07:35:42.890Z,3.50
2019-01-17T07:38:13.288Z,3.50
2019-01-17T07:40:43.817Z,3.50
2019-01-17T07:43:14.380Z,3.50
2019-01-17T07:45:44.512Z,3.60
2019-01-17T07:48:14.957Z,3.60
2019-01-17T07:50:44.925Z,3.60
2019-01-17T07:53:15.491Z,3.60
2019-01-17T07:55:47.703Z,3.60
2019-01-17T07:58:17.999Z,3.60
2019-01-17T08:00:48.678Z,3.60
2019-01-17T08:03:18.850Z,3.60
2019-01-17T08:05:49.346Z,3.60
2019-01-17T08:08:19.538Z,3.60
2019-01-17T08:10:49.856Z,3.60
2019-01-17T08:13:20.364Z,3.60
2019-01-17T08:15:50.808Z,3.60
2019-01-17T08:18:21.278Z,3.60
2019-01-17T08:20:51.312Z,3.70
2019-01-17T08:23:21.872Z,3.70
2019-01-17T08:25:54.365Z,3.70
2019-01-17T08:28:24.478Z,3.70
2019-01-17T08:30:54.714Z,3.70
2019-01-17T08:33:25.333Z,3.70
2019-01-17T08:35:55.542Z,3.70
2019-01-17T08:38:25.418Z,3.80
2019-01-17T08:40:55.660Z,3.80
2019-01-17T08:43:25.989Z,3.90
2019-01-17T08:45:56.272Z,4.00
2019-01-17T08:48:26.983Z,4.00
2019-01-17T08:50:57.197Z,4.10
2019-01-17T08:53:27.398Z,4.10
2019-01-17T08:56:00.897Z,4.10
2019-01-17T08:58:29.595Z,4.10
2019-01-17T09:00:59.760Z,4.10
2019-01-17T09:03:30.355Z,4.10
2019-01-17T09:06:00.832Z,4.10
2019-01-17T09:08:31.452Z,4.20
2019-01-17T09:11:02.031Z,4.20
2019-01-17T09:13:32.200Z,4.20
2019-01-17T09:16:01.982Z,4.30
2019-01-17T09:18:32.545Z,4.30
2019-01-17T09:21:02.984Z,4.40
2019-01-17T09:23:33.120Z,4.50
2019-01-17T09:26:07.499Z,4.60
2019-01-17T09:28:35.446Z,4.60
2019-01-17T09:31:06.066Z,4.80
2019-01-17T09:33:36.612Z,4.90
2019-01-17T09:36:06.917Z,5.00
2019-01-17T09:38:37.555Z,5.10
2019-01-17T09:41:08.051Z,5.20
2019-01-17T09:43:38.150Z,5.30
2019-01-17T09:46:08.701Z,5.50
2019-01-17T09:48:38.830Z,5.60
2019-01-17T09:51:09.336Z,5.70
2019-01-17T09:53:39.652Z,5.80
2019-01-17T09:56:14.799Z,6.00
2019-01-17T09:58:41.943Z,6.20
2019-01-17T10:01:12.166Z,6.30
2019-01-17T10:03:42.358Z,6.50
2019-01-17T10:06:12.761Z,6.50
2019-01-17T10:08:42.998Z,6.60
2019-01-17T10:11:13.524Z,6.70
2019-01-17T10:13:43.802Z,6.70
2019-01-17T10:16:25.906Z,6.70
2019-01-17T10:19:13.724Z,6.70
2019-01-17T10:22:28.462Z,6.70
2019-01-17T10:25:12.708Z,6.80
2019-01-17T10:28:28.481Z,6.80
2019-01-17T10:31:25.433Z,6.80
2019-01-17T10:34:51.180Z,6.90
2019-01-17T10:38:29.788Z,7.00
2019-01-17T10:41:35.209Z,7.10
2019-01-17T10:44:27.441Z,7.20
2019-01-17T10:47:38.291Z,7.10
2019-01-17T10:50:34.190Z,7.10
2019-01-17T10:53:43.918Z,7.00
2019-01-17T10:57:07.355Z,7.10
2019-01-17T11:00:07.683Z,7.00
2019-01-17T11:03:02.357Z,7.00
2019-01-17T11:06:16.406Z,7.10
2019-01-17T11:09:19.450Z,7.10
2019-01-17T11:12:29.996Z,7.10
2019-01-17T11:15:37.036Z,7.10
2019-01-17T11:18:49.952Z,7.10
2019-01-17T11:21:47.296Z,7.10
2019-01-17T11:24:48.628Z,7.00
2019-01-17T11:28:17.194Z,7.00
2019-01-17T11:31:35.881Z,7.00
2019-01-17T11:34:48.195Z,6.90
2019-01-17T11:38:01.105Z,6.90
2019-01-17T11:41:20.235Z,6.90
2019-01-17T11:44:39.987Z,6.90
2019-01-17T11:47:35.088Z,6.80
2019-01-17T11:51:05.376Z,6.80
2019-01-17T11:53:49.420Z,6.80
2019-01-17T11:56:52.492Z,6.90
2019-01-17T12:00:03.542Z,6.80
2019-01-17T12:02:56.995Z,6.80
2019-01-17T12:05:27.584Z,6.80
2019-01-17T12:07:58.210Z,6.80
2019-01-17T12:10:28.604Z,6.80
2019-01-17T12:12:59.794Z,6.80
2019-01-17T12:15:30.375Z,6.70
2019-01-17T12:18:00.970Z,6.70
2019-01-17T12:20:31.532Z,6.70
2019-01-17T12:23:02.098Z,6.70
2019-01-17T12:25:32.262Z,6.70
2019-01-17T12:28:02.460Z,6.70
2019-01-17T12:30:32.036Z,6.70
2019-01-17T12:33:02.179Z,6.60
2019-01-17T12:35:32.400Z,6.70
2019-01-17T12:38:02.882Z,6.70
2019-01-17T12:40:33.586Z,6.70
2019-01-17T12:43:03.873Z,6.70
2019-01-17T12:45:34.110Z,6.70
2019-01-17T12:48:04.124Z,6.70
2019-01-17T12:50:34.759Z,6.70
2019-01-17T12:53:05.378Z,6.80
2019-01-17T12:55:35.962Z,6.70
2019-01-17T12:58:06.243Z,6.70
2019-01-17T13:00:36.462Z,6.80
2019-01-17T13:03:06.799Z,6.80
2019-01-17T13:05:37.034Z,6.80
2019-01-17T13:08:07.587Z,6.70
2019-01-17T13:10:37.878Z,6.70
2019-01-17T13:13:08.358Z,6.60
2019-01-17T13:15:39.467Z,6.50
2019-01-17T13:18:09.984Z,6.50
2019-01-17T13:20:40.540Z,6.40
2019-01-17T13:23:10.704Z,6.30
2019-01-17T13:25:41.392Z,6.30
2019-01-17T13:28:11.301Z,6.20
2019-01-17T13:30:41.527Z,6.20
2019-01-17T13:33:12.276Z,6.20
2019-01-17T13:35:42.418Z,6.10
2019-01-17T13:38:13.029Z,6.20
2019-01-17T13:40:43.672Z,6.20
2019-01-17T13:43:13.899Z,6.20
2019-01-17T13:45:44.383Z,6.10
2019-01-17T13:48:14.732Z,6.20
2019-01-17T13:50:45.228Z,6.20
2019-01-17T13:53:15.502Z,6.10
2019-01-17T13:55:45.708Z,6.20
2019-01-17T13:58:15.532Z,6.20
2019-01-17T14:00:46.170Z,6.10
2019-01-17T14:03:16.734Z,6.10
2019-01-17T14:05:46.600Z,6.10
2019-01-17T14:08:16.934Z,6.00
2019-01-17T14:10:47.418Z,6.00
2019-01-17T14:13:17.849Z,6.00
2019-01-17T14:15:48.130Z,6.00
2019-01-17T14:18:18.671Z,5.90
2019-01-17T14:20:49.140Z,5.90
2019-01-17T14:23:19.007Z,5.90
2019-01-17T14:25:49.340Z,5.90
2019-01-17T14:28:19.822Z,5.80
2019-01-17T14:30:50.189Z,5.80
2019-01-17T14:33:21.148Z,5.90
2019-01-17T14:35:51.811Z,5.90
2019-01-17T14:38:22.397Z,5.90
2019-01-17T14:40:52.994Z,5.90
2019-01-17T14:43:22.989Z,5.90
2019-01-17T14:45:53.280Z,5.90
2019-01-17T14:48:23.770Z,5.80
2019-01-17T14:50:53.730Z,5.80
2019-01-17T14:53:23.918Z,5.80
2019-01-17T14:55:54.191Z,5.80
2019-01-17T14:58:24.394Z,5.80
2019-01-17T15:00:54.988Z,5.80
2019-01-17T15:03:25.603Z,5.80
2019-01-17T15:05:56.238Z,5.80
2019-01-17T15:08:26.857Z,5.80
2019-01-17T15:10:57.541Z,5.70
2019-01-17T15:13:27.917Z,5.70
2019-01-17T15:15:58.067Z,5.70
2019-01-17T15:18:27.932Z,5.70
2019-01-17T15:20:58.510Z,5.60
2019-01-17T15:23:28.974Z,5.60
2019-01-17T15:25:59.230Z,5.50
2019-01-17T15:28:29.770Z,5.40
2019-01-17T15:31:00.254Z,5.40
2019-01-17T15:33:30.523Z,5.40
2019-01-17T15:36:00.774Z,5.40
2019-01-17T15:38:31.400Z,5.40
2019-01-17T15:41:01.976Z,5.30
2019-01-17T15:43:32.638Z,5.30
2019-01-17T15:46:03.268Z,5.30
2019-01-17T15:48:33.102Z,5.30
2019-01-17T15:51:03.776Z,5.20
2019-01-17T15:53:34.398Z,5.20
2019-01-17T15:56:04.679Z,5.20
2019-01-17T15:58:35.331Z,5.20
2019-01-17T16:01:05.930Z,5.20
2019-01-17T16:03:36.463Z,5.20
2019-01-17T16:06:06.829Z,5.20
2019-01-17T16:08:37.122Z,5.10
2019-01-17T16:11:07.308Z,5.10
2019-01-17T16:13:37.903Z,5.10
2019-01-17T16:16:07.741Z,5.00
2019-01-17T16:18:38.310Z,5.00
2019-01-17T16:21:08.890Z,5.00
2019-01-17T16:23:39.112Z,5.00
2019-01-17T16:26:09.311Z,5.00
2019-01-17T16:28:39.987Z,5.00
2019-01-17T16:31:10.155Z,5.00
2019-01-17T16:33:40.378Z,5.00
2019-01-17T16:36:11.066Z,5.00
2019-01-17T16:38:41.242Z,5.00
2019-01-17T16:41:11.870Z,5.00
2019-01-17T16:43:42.172Z,5.00
2019-01-17T16:46:12.471Z,5.00
2019-01-17T16:48:42.942Z,5.00
2019-01-17T16:51:13.433Z,5.00
2019-01-17T16:53:43.959Z,5.00
2019-01-17T16:56:14.151Z,5.00
2019-01-17T16:58:44.714Z,5.00
2019-01-17T17:01:15.270Z,5.00
2019-01-17T17:03:45.467Z,5.00
2019-01-17T17:06:15.915Z,5.00
2019-01-17T17:08:46.085Z,5.00
2019-01-17T17:11:16.294Z,5.00
2019-01-17T17:13:46.995Z,5.00
2019-01-17T17:16:17.248Z,4.90
2019-01-17T17:18:47.788Z,4.90
2019-01-17T17:21:18.088Z,4.90
2019-01-17T17:23:48.446Z,4.90
2019-01-17T17:26:18.691Z,4.90
2019-01-17T17:28:49.273Z,4.80
2019-01-17T17:31:19.451Z,4.80
2019-01-17T17:33:49.418Z,4.80
2019-01-17T17:36:20.042Z,4.80
2019-01-17T17:38:50.691Z,4.90
2019-01-17T17:41:20.980Z,4.90
2019-01-17T17:44:10.254Z,4.90
2019-01-17T17:46:40.965Z,5.00
